Time;durP1;ratioP1;P1;durP2;ratioP2;P2;SDS_P1;SDS_P2;PMS_P1;PMS_P2;Temp;Humidity;BMP_temperature;BMP_pressure;BME280_temperature;BME280_humidity;BME280_pressure;Samples;Min_cycle;Max_cycle;Signal;HPM_P1;HPM_P2
2021/09/02 00:00:30;;;;;;;17.98;13.00;;;16.40;81.00;;;;;;4884680;29;20492;-79
2021/09/02 00:02:55;;;;;;;18.73;12.77;;;16.40;81.30;;;;;;4888798;29;20029;-78
2021/09/02 00:05:21;;;;;;;17.15;11.48;;;16.30;81.50;;;;;;4891594;29;20044;-79
2021/09/02 00:07:47;;;;;;;17.25;12.68;;;16.20;81.70;;;;;;4892551;29;20033;-79
2021/09/02 00:10:13;;;;;;;20.65;13.90;;;16.20;82.10;;;;;;4894231;29;20413;-79
2021/09/02 00:12:38;;;;;;;19.02;13.05;;;16.10;82.30;;;;;;4927138;29;20124;-78
2021/09/02 00:15:06;;;;;;;18.67;14.07;;;16.00;82.50;;;;;;4912956;29;20036;-80
2021/09/02 00:17:32;;;;;;;19.25;14.18;;;16.00;83.00;;;;;;4914303;29;20043;-79
2021/09/02 00:19:58;;;;;;;20.10;13.60;;;15.90;83.40;;;;;;4897403;29;20052;-79
2021/09/02 00:22:24;;;;;;;18.10;13.07;;;15.80;83.60;;;;;;4914637;29;20044;-79
2021/09/02 00:24:50;;;;;;;19.63;13.57;;;15.70;83.70;;;;;;4915836;29;20037;-78
2021/09/02 00:27:15;;;;;;;20.80;12.75;;;15.60;84.00;;;;;;4884208;29;20032;-79
2021/09/02 00:29:41;;;;;;;20.45;12.63;;;15.50;84.30;;;;;;4899922;29;20024;-78
2021/09/02 00:32:07;;;;;;;21.73;13.68;;;15.30;84.60;;;;;;4884632;29;20065;-78
2021/09/02 00:34:33;;;;;;;19.63;14.00;;;15.30;85.10;;;;;;4883093;29;20040;-79
2021/09/02 00:36:58;;;;;;;20.75;14.63;;;15.20;85.60;;;;;;4910599;29;20385;-78
2021/09/02 00:39:24;;;;;;;22.83;14.27;;;15.10;86.10;;;;;;4876004;29;20063;-79
2021/09/02 00:41:50;;;;;;;22.05;13.02;;;15.00;86.60;;;;;;4869872;29;20041;-79
2021/09/02 00:44:44;;;;;;;23.13;14.27;;;14.90;86.90;;;;;;4868307;29;20540;-79
2021/09/02 00:47:11;;;;;;;19.27;13.05;;;14.80;87.30;;;;;;4896592;29;20052;-79
2021/09/02 00:49:40;;;;;;;20.92;13.75;;;14.70;87.50;;;;;;4917321;29;20048;-79
2021/09/02 00:52:12;;;;;;;21.65;15.23;;;14.60;87.80;;;;;;4902689;29;20038;-78
2021/09/02 00:54:42;;;;;;;22.00;14.85;;;14.60;88.30;;;;;;4901193;29;20472;-79
2021/09/02 00:57:11;;;;;;;20.45;14.82;;;14.60;88.70;;;;;;4918878;29;20115;-79
2021/09/02 00:59:38;;;;;;;22.70;14.70;;;14.50;89.10;;;;;;4932954;29;20115;-79
2021/09/02 01:02:04;;;;;;;23.75;15.45;;;14.50;89.50;;;;;;4922432;29;20028;-78
2021/09/02 01:04:30;;;;;;;21.48;14.90;;;14.40;89.60;;;;;;4935028;29;20063;-80
2021/09/02 01:06:57;;;;;;;21.02;14.40;;;14.40;89.80;;;;;;4904076;29;20047;-79
2021/09/02 01:09:25;;;;;;;20.58;14.85;;;14.40;90.00;;;;;;4918844;29;20036;-78
2021/09/02 01:11:52;;;;;;;25.73;15.68;;;14.40;90.10;;;;;;4921385;29;20039;-79
2021/09/02 01:14:19;;;;;;;24.40;15.48;;;14.40;90.20;;;;;;4889867;29;20122;-80
2021/09/02 01:16:50;;;;;;;19.45;14.57;;;14.30;90.30;;;;;;4904668;29;20042;-79
2021/09/02 01:19:19;;;;;;;19.25;13.68;;;14.30;90.40;;;;;;4922393;29;20032;-80
2021/09/02 01:21:46;;;;;;;19.63;14.45;;;14.30;90.50;;;;;;4904500;29;20155;-79
2021/09/02 01:24:12;;;;;;;22.17;14.60;;;14.30;90.50;;;;;;4922110;29;20036;-79
2021/09/02 01:26:39;;;;;;;19.83;14.20;;;14.20;90.60;;;;;;4889722;29;20047;-79
2021/09/02 01:29:07;;;;;;;21.98;14.35;;;14.20;90.70;;;;;;4936568;29;20024;-78
2021/09/02 01:31:32;;;;;;;20.23;14.00;;;14.10;90.80;;;;;;4904713;29;20032;-80
2021/09/02 01:33:58;;;;;;;25.70;15.82;;;14.00;91.10;;;;;;4905045;29;20042;-79
2021/09/02 01:36:24;;;;;;;23.98;14.85;;;14.00;91.20;;;;;;4936146;29;20036;-79
2021/09/02 01:38:49;;;;;;;22.67;14.32;;;13.90;91.30;;;;;;4904561;29;20115;-79
2021/09/02 01:41:15;;;;;;;19.48;14.05;;;13.90;91.40;;;;;;4935350;29;20024;-79
2021/09/02 01:43:41;;;;;;;20.77;14.63;;;13.80;91.40;;;;;;4904376;29;20090;-79
2021/09/02 01:46:07;;;;;;;23.23;15.68;;;13.80;91.60;;;;;;4904114;29;20504;-78
2021/09/02 01:48:34;;;;;;;19.95;14.20;;;13.70;91.70;;;;;;4888721;29;20047;-80
2021/09/02 01:51:00;;;;;;;19.98;14.70;;;13.70;91.80;;;;;;4903590;29;20039;-79
2021/09/02 01:53:26;;;;;;;22.40;14.27;;;13.70;91.80;;;;;;4905610;29;20449;-77
2021/09/02 01:55:52;;;;;;;20.80;13.93;;;13.70;91.90;;;;;;4925918;29;20103;-78
2021/09/02 01:58:17;;;;;;;22.27;14.63;;;13.60;91.90;;;;;;4925985;29;20471;-78
2021/09/02 02:00:45;;;;;;;19.23;14.07;;;13.60;92.00;;;;;;4891149;29;20063;-79
2021/09/02 02:03:10;;;;;;;19.45;14.68;;;13.60;92.00;;;;;;4919512;29;20036;-78
2021/09/02 02:05:37;;;;;;;19.88;14.48;;;13.50;92.00;;;;;;4906033;29;20095;-79
2021/09/02 02:08:03;;;;;;;19.10;14.55;;;13.50;92.20;;;;;;4936433;29;20024;-78
2021/09/02 02:10:31;;;;;;;19.30;14.40;;;13.50;92.20;;;;;;4921973;29;20166;-79
2021/09/02 02:13:01;;;;;;;21.98;15.43;;;13.50;92.30;;;;;;4905337;29;20036;-79
2021/09/02 02:15:29;;;;;;;20.08;14.65;;;13.40;92.40;;;;;;4935569;29;20036;-79
2021/09/02 02:17:55;;;;;;;21.08;14.32;;;13.40;92.70;;;;;;4888362;29;20036;-79
2021/09/02 02:20:21;;;;;;;23.17;15.27;;;13.30;92.50;;;;;;4903909;29;20136;-79
2021/09/02 02:22:47;;;;;;;22.05;14.85;;;13.30;92.70;;;;;;4903368;29;20052;-80
2021/09/02 02:25:15;;;;;;;20.92;14.63;;;13.30;92.80;;;;;;4904531;29;20040;-79
2021/09/02 02:27:41;;;;;;;20.55;13.27;;;13.30;92.80;;;;;;4919926;29;20067;-79
2021/09/02 02:30:10;;;;;;;22.00;15.30;;;13.20;92.80;;;;;;4903471;29;20044;-79
2021/09/02 02:32:36;;;;;;;20.23;15.30;;;13.20;92.90;;;;;;4904344;29;20060;-78
2021/09/02 02:35:02;;;;;;;23.10;14.25;;;13.20;93.00;;;;;;4904070;29;20040;-79
2021/09/02 02:37:27;;;;;;;23.10;15.27;;;13.20;93.00;;;;;;4888660;29;20043;-79
2021/09/02 02:39:53;;;;;;;26.00;15.02;;;13.20;93.00;;;;;;4904790;29;20122;-78
2021/09/02 02:42:19;;;;;;;20.30;14.95;;;13.20;93.00;;;;;;4888126;29;20464;-78
2021/09/02 02:44:44;;;;;;;18.45;14.05;;;13.20;93.00;;;;;;4920103;29;20150;-79
2021/09/02 02:47:10;;;;;;;20.80;13.93;;;13.20;93.10;;;;;;4921244;29;20131;-79
2021/09/02 02:49:37;;;;;;;22.92;14.50;;;13.10;93.00;;;;;;4889013;29;20028;-79
2021/09/02 02:52:04;;;;;;;22.58;15.43;;;13.10;93.10;;;;;;4904280;29;20038;-78
2021/09/02 02:54:29;;;;;;;22.33;15.10;;;13.10;93.00;;;;;;4920980;29;20059;-78
2021/09/02 02:56:56;;;;;;;19.67;14.02;;;13.00;93.00;;;;;;4887820;29;20032;-79
2021/09/02 02:59:22;;;;;;;21.42;15.45;;;12.90;93.10;;;;;;4887672;29;20488;-78
2021/09/02 03:01:48;;;;;;;24.45;15.07;;;12.80;93.30;;;;;;4903026;29;20033;-79
2021/09/02 03:04:13;;;;;;;20.63;14.82;;;12.80;93.40;;;;;;4934027;29;20497;-78
2021/09/02 03:06:39;;;;;;;22.77;14.77;;;12.90;93.50;;;;;;4887327;29;20088;-78
2021/09/02 03:09:05;;;;;;;19.70;15.02;;;12.90;93.50;;;;;;4902389;29;20108;-78
2021/09/02 03:11:31;;;;;;;20.92;14.88;;;12.90;93.50;;;;;;4918750;29;20059;-79
2021/09/02 03:13:57;;;;;;;20.20;14.85;;;12.90;93.40;;;;;;4919438;29;20051;-78
2021/09/02 03:16:23;;;;;;;23.58;15.70;;;12.80;93.60;;;;;;4934155;29;20027;-78
2021/09/02 03:18:50;;;;;;;19.50;14.35;;;12.80;93.40;;;;;;4919607;29;20032;-79
2021/09/02 03:21:16;;;;;;;22.73;14.70;;;12.70;93.50;;;;;;4918514;29;20039;-79
2021/09/02 03:23:42;;;;;;;21.40;16.10;;;12.80;93.50;;;;;;4918261;29;20522;-78
2021/09/02 03:26:08;;;;;;;19.07;14.43;;;12.70;93.50;;;;;;4918736;29;20025;-79
2021/09/02 03:28:34;;;;;;;21.55;16.35;;;12.70;93.50;;;;;;4919502;29;20422;-79
2021/09/02 03:30:59;;;;;;;23.50;14.57;;;12.60;93.50;;;;;;4902198;29;20436;-79
2021/09/02 03:33:25;;;;;;;22.37;14.53;;;12.50;93.50;;;;;;4919218;29;20028;-80
2021/09/02 03:35:51;;;;;;;20.27;14.13;;;12.50;93.60;;;;;;4933673;29;20043;-80
2021/09/02 03:38:17;;;;;;;22.63;14.83;;;12.40;93.70;;;;;;4902011;29;20032;-78
2021/09/02 03:40:43;;;;;;;24.15;15.15;;;12.40;93.80;;;;;;4918514;29;20039;-79
2021/09/02 03:43:09;;;;;;;20.60;14.97;;;12.40;93.90;;;;;;4901706;29;20036;-78
2021/09/02 03:45:34;;;;;;;19.33;14.23;;;12.40;93.80;;;;;;4901943;29;20153;-79
2021/09/02 03:48:00;;;;;;;20.53;13.93;;;12.40;93.80;;;;;;4867932;29;20083;-78
2021/09/02 03:50:26;;;;;;;21.77;14.70;;;12.30;93.80;;;;;;4882938;29;20161;-79
2021/09/02 03:52:52;;;;;;;19.33;14.10;;;12.30;93.90;;;;;;4898694;29;20028;-78
2021/09/02 03:55:18;;;;;;;17.53;13.90;;;12.40;94.00;;;;;;4898703;29;20040;-77
2021/09/02 03:57:43;;;;;;;19.83;14.30;;;12.40;94.00;;;;;;4882107;29;20345;-77
2021/09/02 04:00:12;;;;;;;22.90;14.03;;;12.50;93.90;;;;;;4866429;29;20036;-77
2021/09/02 04:02:38;;;;;;;21.93;14.47;;;12.50;93.90;;;;;;4912516;29;20028;-77
2021/09/02 04:05:06;;;;;;;17.57;14.17;;;12.50;93.90;;;;;;4912496;29;20032;-77
2021/09/02 04:07:32;;;;;;;21.53;13.87;;;12.50;93.90;;;;;;4898235;29;20394;-77
2021/09/02 04:09:58;;;;;;;21.43;13.77;;;12.40;93.90;;;;;;4898150;29;20033;-77
2021/09/02 04:12:23;;;;;;;18.23;13.07;;;12.40;94.00;;;;;;4865906;29;20036;-77
2021/09/02 04:14:49;;;;;;;18.70;13.53;;;12.40;94.00;;;;;;4881675;29;20041;-77
2021/09/02 04:17:15;;;;;;;18.10;13.07;;;12.30;94.00;;;;;;4881331;29;20112;-77
2021/09/02 04:19:40;;;;;;;20.63;13.63;;;12.40;94.10;;;;;;4912279;29;20115;-77
2021/09/02 04:22:06;;;;;;;16.50;13.13;;;12.50;94.10;;;;;;4865731;29;20071;-77
2021/09/02 04:24:32;;;;;;;22.13;13.67;;;12.60;94.00;;;;;;4881300;29;20036;-77
2021/09/02 04:26:57;;;;;;;17.23;12.57;;;12.70;93.90;;;;;;4896508;29;20029;-78
2021/09/02 04:29:24;;;;;;;16.03;12.00;;;12.70;93.70;;;;;;4912408;29;20076;-77
2021/09/02 04:31:50;;;;;;;16.48;11.43;;;12.70;93.60;;;;;;4912819;29;20024;-78
2021/09/02 04:34:16;;;;;;;20.23;12.90;;;12.70;93.60;;;;;;4865850;29;20532;-77
2021/09/02 04:36:42;;;;;;;17.80;13.00;;;12.60;93.50;;;;;;4913179;29;20088;-77
2021/09/02 04:39:08;;;;;;;17.48;13.20;;;12.50;93.60;;;;;;4898416;29;20037;-77
2021/09/02 04:41:34;;;;;;;20.10;12.73;;;12.50;93.70;;;;;;4881386;29;20028;-77
2021/09/02 04:44:00;;;;;;;21.57;13.47;;;12.50;93.80;;;;;;4898619;29;20352;-78
2021/09/02 04:46:26;;;;;;;19.80;12.47;;;12.40;93.70;;;;;;4890728;29;20130;-79
2021/09/02 04:48:52;;;;;;;18.80;12.07;;;12.20;93.80;;;;;;4887735;29;20032;-76
2021/09/02 04:51:18;;;;;;;17.20;12.20;;;12.10;94.00;;;;;;4920160;29;20040;-76
2021/09/02 04:53:44;;;;;;;18.00;12.43;;;12.10;94.10;;;;;;4887741;29;20029;-77
2021/09/02 04:56:10;;;;;;;20.00;12.37;;;12.00;94.20;;;;;;4919060;29;20384;-77
2021/09/02 04:58:37;;;;;;;20.27;12.57;;;12.00;94.20;;;;;;4920306;29;20032;-77
2021/09/02 05:01:03;;;;;;;19.63;13.77;;;12.00;94.30;;;;;;4935024;29;20032;-78
2021/09/02 05:03:29;;;;;;;19.00;13.00;;;12.00;94.30;;;;;;4920384;29;20039;-77
2021/09/02 05:05:54;;;;;;;18.70;12.43;;;12.00;94.40;;;;;;4919934;29;20036;-78
2021/09/02 05:08:22;;;;;;;19.07;12.63;;;12.10;94.50;;;;;;4919857;29;20417;-77
2021/09/02 05:10:48;;;;;;;19.17;12.83;;;12.30;94.50;;;;;;4903675;29;20039;-78
2021/09/02 05:13:14;;;;;;;18.83;12.70;;;12.40;94.30;;;;;;4934595;29;20054;-78
2021/09/02 05:15:39;;;;;;;22.53;12.23;;;12.50;94.20;;;;;;4887800;29;20376;-78
2021/09/02 05:18:05;;;;;;;18.50;12.80;;;12.60;94.10;;;;;;4903127;29;20444;-78
2021/09/02 05:20:31;;;;;;;16.95;12.82;;;13.00;94.00;;;;;;4919998;29;20029;-78
2021/09/02 05:22:56;;;;;;;13.80;11.93;;;13.30;93.60;;;;;;4902663;29;20028;-77
2021/09/02 05:25:22;;;;;;;15.77;10.95;;;13.70;93.10;;;;;;4934481;29;20036;-78
2021/09/02 05:27:48;;;;;;;22.02;11.65;;;14.20;92.00;;;;;;4902950;29;20096;-77
2021/09/02 05:30:14;;;;;;;16.92;11.38;;;14.60;91.00;;;;;;4902777;29;20036;-78
2021/09/02 05:32:40;;;;;;;14.25;11.57;;;15.00;90.30;;;;;;4903284;29;20036;-78
2021/09/02 05:35:07;;;;;;;16.85;10.93;;;15.30;88.80;;;;;;4919820;29;20051;-78
2021/09/02 05:37:33;;;;;;;17.20;10.98;;;15.70;86.90;;;;;;4903316;29;20028;-77
2021/09/02 05:39:58;;;;;;;14.32;10.25;;;16.10;85.40;;;;;;4920136;29;20043;-79
2021/09/02 05:42:24;;;;;;;19.27;10.77;;;16.50;83.30;;;;;;4934658;29;20123;-78
2021/09/02 05:44:50;;;;;;;18.15;11.27;;;16.90;81.70;;;;;;4902914;29;20032;-77
2021/09/02 05:47:16;;;;;;;17.10;11.00;;;17.40;80.00;;;;;;4902321;29;20056;-79
2021/09/02 05:49:41;;;;;;;16.08;9.82;;;17.70;78.60;;;;;;4934124;29;20357;-78
2021/09/02 05:52:07;;;;;;;14.32;9.63;;;18.10;77.40;;;;;;4902462;29;20380;-79
2021/09/02 05:54:33;;;;;;;14.82;9.02;;;18.40;76.10;;;;;;4933896;29;20091;-78
2021/09/02 05:56:58;;;;;;;14.55;9.60;;;18.80;74.90;;;;;;4916702;29;20032;-79
2021/09/02 05:59:24;;;;;;;13.43;9.85;;;19.20;73.50;;;;;;4933604;29;20039;-79
2021/09/02 06:01:49;;;;;;;18.00;9.50;;;19.60;72.20;;;;;;4933567;29;20069;-78
2021/09/02 06:04:15;;;;;;;15.23;9.82;;;20.00;70.90;;;;;;4917681;29;20036;-79
2021/09/02 06:06:41;;;;;;;15.32;9.68;;;20.10;70.30;;;;;;4902013;29;20460;-79
2021/09/02 06:09:10;;;;;;;14.07;8.38;;;20.30;69.60;;;;;;4919140;29;20036;-79
2021/09/02 06:11:36;;;;;;;14.80;9.25;;;20.60;69.00;;;;;;4918947;29;20464;-79
2021/09/02 06:14:02;;;;;;;14.57;9.52;;;21.10;67.80;;;;;;4917852;29;20051;-79
2021/09/02 06:16:27;;;;;;;13.88;10.15;;;21.40;66.70;;;;;;4919248;29;20029;-79
2021/09/02 06:18:53;;;;;;;16.92;9.57;;;21.70;65.70;;;;;;4918296;29;20035;-79
2021/09/02 06:21:19;;;;;;;16.55;10.10;;;21.90;64.90;;;;;;4901994;29;20028;-79
2021/09/02 06:23:44;;;;;;;14.80;10.70;;;22.20;64.10;;;;;;4918972;29;20032;-79
2021/09/02 06:26:11;;;;;;;16.95;10.73;;;22.40;63.30;;;;;;4888077;29;20028;-79
2021/09/02 06:28:36;;;;;;;13.95;10.38;;;22.50;62.60;;;;;;4919897;29;20032;-79
2021/09/02 06:31:02;;;;;;;18.75;10.65;;;22.30;62.30;;;;;;4933981;29;20043;-80
2021/09/02 06:33:28;;;;;;;13.70;9.80;;;21.90;63.00;;;;;;4902267;29;20028;-80
2021/09/02 06:35:53;;;;;;;18.08;10.35;;;21.80;63.10;;;;;;4901937;29;20091;-78
2021/09/02 06:38:19;;;;;;;14.93;10.15;;;21.80;63.00;;;;;;4917401;29;20123;-79
2021/09/02 06:40:45;;;;;;;12.30;8.82;;;21.80;63.50;;;;;;4901495;29;20025;-81
2021/09/02 06:43:11;;;;;;;13.60;9.30;;;22.10;63.50;;;;;;4901392;29;20032;-79
2021/09/02 06:45:37;;;;;;;12.80;9.52;;;22.60;62.50;;;;;;4901947;29;20067;-79
2021/09/02 06:48:03;;;;;;;12.25;8.98;;;23.10;61.50;;;;;;4913789;29;20140;-79
2021/09/02 06:50:29;;;;;;;16.88;10.25;;;23.20;60.70;;;;;;4913871;29;20025;-78
2021/09/02 06:52:55;;;;;;;12.85;8.60;;;23.00;60.50;;;;;;4882711;29;20031;-77
2021/09/02 06:55:20;;;;;;;17.45;8.77;;;23.10;61.10;;;;;;4883191;29;20036;-77
2021/09/02 06:57:46;;;;;;;13.27;8.75;;;23.50;60.30;;;;;;4898047;29;20028;-77
2021/09/02 07:00:13;;;;;;;13.07;9.13;;;23.10;60.10;;;;;;4913720;29;20076;-78
2021/09/02 07:02:39;;;;;;;13.63;9.52;;;22.80;60.10;;;;;;4899391;29;20524;-77
2021/09/02 07:05:07;;;;;;;13.65;8.43;;;23.10;60.50;;;;;;4882511;29;20045;-77
2021/09/02 07:07:33;;;;;;;15.15;8.68;;;23.00;59.90;;;;;;4913035;29;20017;-77
2021/09/02 07:09:58;;;;;;;14.55;8.55;;;23.30;60.00;;;;;;4897840;29;20039;-78
2021/09/02 07:12:24;;;;;;;12.85;8.27;;;23.60;59.10;;;;;;4913084;29;20461;-78
2021/09/02 07:14:50;;;;;;;15.15;9.50;;;24.00;59.10;;;;;;4898734;29;20374;-77
2021/09/02 07:17:16;;;;;;;14.25;8.75;;;24.60;57.80;;;;;;4882338;29;20037;-80
2021/09/02 07:19:41;;;;;;;18.02;9.48;;;24.60;56.70;;;;;;4898929;29;20157;-79
2021/09/02 07:22:07;;;;;;;15.82;9.48;;;24.30;56.20;;;;;;4882312;29;20116;-78
2021/09/02 07:24:33;;;;;;;14.93;9.70;;;24.00;56.80;;;;;;4898414;29;20040;-78
2021/09/02 07:26:59;;;;;;;15.25;9.68;;;23.80;57.90;;;;;;4899309;29;20032;-81
2021/09/02 07:29:24;;;;;;;17.33;9.35;;;23.60;58.50;;;;;;4897696;29;20469;-79
2021/09/02 07:31:50;;;;;;;17.25;9.55;;;23.70;58.40;;;;;;4913630;29;20040;-80
2021/09/02 07:34:16;;;;;;;17.80;11.27;;;23.90;58.50;;;;;;4898555;29;20029;-80
2021/09/02 07:36:41;;;;;;;17.35;9.82;;;24.20;58.40;;;;;;4866484;29;20040;-80
2021/09/02 07:39:08;;;;;;;16.13;9.65;;;24.60;56.70;;;;;;4881902;29;20429;-81
2021/09/02 07:41:34;;;;;;;14.20;8.30;;;24.90;56.20;;;;;;4898395;29;20037;-81
2021/09/02 07:44:00;;;;;;;17.38;8.88;;;24.90;55.70;;;;;;4897115;29;20496;-80
2021/09/02 07:46:26;;;;;;;16.48;8.52;;;25.00;55.90;;;;;;4887323;29;20448;-80
2021/09/02 07:48:52;;;;;;;19.25;9.05;;;25.20;55.10;;;;;;4916032;29;20044;-79
2021/09/02 07:51:19;;;;;;;14.50;8.45;;;25.30;56.20;;;;;;4899988;29;20106;-79
2021/09/02 07:53:45;;;;;;;15.85;8.68;;;25.30;55.10;;;;;;4931498;29;20494;-79
2021/09/02 07:56:11;;;;;;;16.95;8.68;;;25.50;55.00;;;;;;4917132;29;20059;-79
2021/09/02 07:58:37;;;;;;;17.35;8.15;;;25.90;54.80;;;;;;4900118;29;20052;-80
2021/09/02 08:01:04;;;;;;;14.98;8.93;;;25.80;53.80;;;;;;4917204;29;20086;-79
2021/09/02 08:03:29;;;;;;;16.40;8.77;;;25.80;54.90;;;;;;4900240;29;20031;-80
2021/09/02 08:05:56;;;;;;;14.05;8.98;;;25.70;54.30;;;;;;4915818;29;20040;-79
2021/09/02 08:08:21;;;;;;;17.90;8.73;;;25.40;55.20;;;;;;4931547;29;20036;-79
2021/09/02 08:10:48;;;;;;;15.68;8.38;;;25.10;55.30;;;;;;4915820;29;20025;-79
2021/09/02 08:13:14;;;;;;;17.60;8.20;;;24.70;56.20;;;;;;4900027;29;20023;-78
2021/09/02 08:15:41;;;;;;;16.77;8.57;;;24.60;56.80;;;;;;4917372;29;20032;-78
2021/09/02 08:18:07;;;;;;;15.75;9.18;;;23.50;58.20;;;;;;4899917;29;20107;-78
2021/09/02 08:20:34;;;;;;;17.00;8.73;;;22.60;61.50;;;;;;4899980;29;20059;-76
2021/09/02 08:23:00;;;;;;;15.45;8.45;;;22.20;62.00;;;;;;4932018;29;20036;-77
2021/09/02 08:25:26;;;;;;;15.52;8.57;;;22.00;63.00;;;;;;4931775;29;20063;-79
2021/09/02 08:27:53;;;;;;;13.80;8.45;;;22.20;63.30;;;;;;4931878;29;20087;-78
2021/09/02 08:30:21;;;;;;;18.45;8.90;;;22.30;62.60;;;;;;4916854;29;20028;-78
2021/09/02 08:32:48;;;;;;;13.20;7.88;;;22.50;63.00;;;;;;4931217;29;20024;-79
2021/09/02 08:35:25;;;;;;;18.55;8.30;;;22.90;62.00;;;;;;4899869;29;20032;-78
2021/09/02 08:37:53;;;;;;;12.07;7.30;;;23.60;60.70;;;;;;4899739;29;20024;-79
2021/09/02 08:40:23;;;;;;;18.27;10.27;;;23.50;59.50;;;;;;4931883;29;20028;-78
2021/09/02 08:42:50;;;;;;;15.05;8.68;;;23.00;60.30;;;;;;4918218;29;20017;-78
2021/09/02 08:45:16;;;;;;;18.08;9.02;;;22.50;61.60;;;;;;4917580;29;20044;-78
2021/09/02 08:47:48;;;;;;;14.25;8.85;;;22.10;62.40;;;;;;4916036;29;20048;-83
2021/09/02 08:50:16;;;;;;;16.13;8.88;;;22.00;63.30;;;;;;4912691;29;20021;-82
2021/09/02 08:52:42;;;;;;;15.95;8.75;;;22.40;62.80;;;;;;4897696;29;20055;-81
2021/09/02 08:55:09;;;;;;;15.80;8.63;;;22.90;61.80;;;;;;4896885;29;20028;-81
2021/09/02 08:57:35;;;;;;;14.55;8.00;;;23.50;60.80;;;;;;4896603;29;20068;-80
2021/09/02 09:00:00;;;;;;;13.80;7.43;;;24.50;60.00;;;;;;4896542;29;20040;-80
2021/09/02 09:02:29;;;;;;;12.10;7.57;;;24.90;56.70;;;;;;4897991;29;20036;-82
2021/09/02 09:05:11;;;;;;;14.73;7.80;;;25.20;55.80;;;;;;4912233;29;20119;-83
2021/09/02 09:07:44;;;;;;;15.68;9.20;;;25.70;54.60;;;;;;4912297;29;20468;-81
2021/09/02 09:10:14;;;;;;;16.85;8.88;;;25.60;52.70;;;;;;4913160;29;20028;-81
2021/09/02 09:12:46;;;;;;;10.77;6.18;;;24.70;53.80;;;;;;4900238;29;20121;-80
2021/09/02 09:15:27;;;;;;;11.52;6.50;;;24.10;56.40;;;;;;4916114;29;20043;-81
2021/09/02 09:17:55;;;;;;;10.43;6.93;;;24.40;55.00;;;;;;4915562;29;20029;-82
2021/09/02 09:20:24;;;;;;;12.57;6.22;;;24.50;55.90;;;;;;4915776;29;20020;-82
2021/09/02 09:22:58;;;;;;;15.73;7.63;;;25.20;55.20;;;;;;4917538;29;20032;-81
2021/09/02 09:25:25;;;;;;;12.38;7.18;;;25.90;52.50;;;;;;4884885;29;20044;-82
2021/09/02 09:27:53;;;;;;;15.02;8.00;;;26.00;51.60;;;;;;4916043;29;20478;-79
2021/09/02 09:30:20;;;;;;;13.35;7.88;;;25.50;51.50;;;;;;4901590;29;20033;-80
2021/09/02 09:32:47;;;;;;;14.68;8.55;;;24.70;53.20;;;;;;4902397;29;20028;-81
2021/09/02 09:35:24;;;;;;;16.20;9.00;;;24.60;54.60;;;;;;4902069;29;20116;-80
2021/09/02 09:38:03;;;;;;;14.38;7.28;;;24.40;54.20;;;;;;4902518;29;20032;-80
2021/09/02 09:40:29;;;;;;;15.13;7.63;;;24.10;55.90;;;;;;4887750;29;20444;-81
2021/09/02 09:43:03;;;;;;;13.70;8.60;;;24.60;55.00;;;;;;4885755;29;20060;-78
2021/09/02 09:45:32;;;;;;;14.85;9.32;;;24.30;55.40;;;;;;4915601;29;20037;-78
2021/09/02 09:47:58;;;;;;;15.52;8.20;;;24.50;55.40;;;;;;4902206;29;20423;-78
2021/09/02 09:50:23;;;;;;;14.80;8.25;;;24.60;55.00;;;;;;4919790;29;20028;-79
2021/09/02 09:52:49;;;;;;;15.18;8.48;;;24.70;54.90;;;;;;4935366;29;20028;-78
2021/09/02 09:55:17;;;;;;;13.63;8.32;;;24.60;55.40;;;;;;4902575;29;20031;-79
2021/09/02 09:57:43;;;;;;;12.25;8.80;;;24.20;55.40;;;;;;4902371;29;20031;-80
2021/09/02 10:00:12;;;;;;;15.32;9.25;;;23.70;57.50;;;;;;4934437;29;20029;-79
2021/09/02 10:02:40;;;;;;;13.90;8.80;;;23.30;57.50;;;;;;4919398;29;20024;-80
2021/09/02 10:05:09;;;;;;;11.50;8.13;;;23.40;58.80;;;;;;4919864;29;20039;-79
2021/09/02 10:07:36;;;;;;;13.50;9.13;;;23.60;58.00;;;;;;4919145;29;20111;-80
2021/09/02 10:10:09;;;;;;;13.27;8.70;;;23.60;57.70;;;;;;4902815;29;20032;-80
2021/09/02 10:12:35;;;;;;;13.32;8.38;;;23.20;59.30;;;;;;4933922;29;20028;-79
2021/09/02 10:15:20;;;;;;;16.10;9.25;;;23.30;59.50;;;;;;4933570;29;20032;-79
2021/09/02 10:17:47;;;;;;;15.43;9.32;;;23.40;58.20;;;;;;4919082;29;20031;-80
2021/09/02 10:20:17;;;;;;;17.23;9.05;;;23.40;58.10;;;;;;4902761;29;20050;-79
2021/09/02 10:22:44;;;;;;;16.55;9.45;;;23.60;58.10;;;;;;4918670;29;20028;-79
2021/09/02 10:25:32;;;;;;;13.63;8.38;;;23.80;57.40;;;;;;4918690;29;20071;-81
2021/09/02 10:28:02;;;;;;;17.95;11.70;;;24.10;57.60;;;;;;4901979;29;20376;-80
2021/09/02 10:30:29;;;;;;;14.35;10.02;;;23.90;56.90;;;;;;4919144;29;20024;-79
2021/09/02 10:32:57;;;;;;;14.27;9.23;;;23.80;57.70;;;;;;4901889;29;20028;-79
2021/09/02 10:35:25;;;;;;;13.63;8.85;;;24.50;57.60;;;;;;4918716;29;20437;-79
2021/09/02 10:37:52;;;;;;;14.00;8.15;;;25.10;55.80;;;;;;4933213;29;20024;-80
2021/09/02 10:40:17;;;;;;;12.85;8.35;;;25.20;52.90;;;;;;4901752;29;20038;-80
2021/09/02 10:42:49;;;;;;;12.50;7.15;;;25.20;53.30;;;;;;4900612;29;20036;-81
2021/09/02 10:47:52;;;;;;;17.17;8.60;;;25.50;52.20;;;;;;4918806;29;20048;-80
2021/09/02 10:50:23;;;;;;;12.77;7.22;;;25.50;53.30;;;;;;4918063;29;20039;-80
2021/09/02 10:52:49;;;;;;;12.60;8.63;;;25.10;52.80;;;;;;4918779;29;20047;-81
2021/09/02 10:55:30;;;;;;;14.52;9.23;;;25.00;53.40;;;;;;4932824;29;20080;-79
2021/09/02 10:57:58;;;;;;;13.35;9.00;;;24.90;53.30;;;;;;4918374;29;20429;-81
2021/09/02 11:00:41;;;;;;;14.85;9.00;;;25.00;53.40;;;;;;4902455;29;20415;-81
2021/09/02 11:03:18;;;;;;;10.52;7.30;;;25.10;52.90;;;;;;4918320;29;20052;-79
2021/09/02 11:05:49;;;;;;;12.38;8.02;;;24.90;55.00;;;;;;4918336;29;20096;-81
2021/09/02 11:08:33;;;;;;;15.75;9.77;;;24.90;53.90;;;;;;4917208;29;20028;-80
2021/09/02 11:11:18;;;;;;;13.88;9.88;;;24.70;53.60;;;;;;4901238;29;20021;-80
2021/09/02 11:13:46;;;;;;;13.13;8.15;;;25.10;53.90;;;;;;4918225;29;20047;-80
2021/09/02 11:16:20;;;;;;;17.63;9.40;;;25.30;53.90;;;;;;4917725;29;20032;-81
2021/09/02 11:19:04;;;;;;;14.80;8.77;;;25.60;53.40;;;;;;4932885;29;20464;-80
2021/09/02 11:21:30;;;;;;;15.73;10.20;;;25.90;52.60;;;;;;4916928;29;20039;-80
2021/09/02 11:24:08;;;;;;;12.93;7.90;;;25.30;52.80;;;;;;4900654;29;20032;-80
2021/09/02 11:26:40;;;;;;;11.82;8.30;;;24.70;54.90;;;;;;4902142;29;20024;-80
2021/09/02 11:29:09;;;;;;;16.38;9.68;;;25.00;55.60;;;;;;4903380;29;20032;-80
2021/09/02 11:31:36;;;;;;;14.98;9.65;;;25.00;54.50;;;;;;4900903;29;20031;-79
2021/09/02 11:34:02;;;;;;;15.48;8.00;;;25.10;54.60;;;;;;4917907;29;20062;-80
2021/09/02 11:36:29;;;;;;;12.27;9.10;;;24.90;54.40;;;;;;4900932;29;20040;-79
2021/09/02 11:39:08;;;;;;;12.15;7.50;;;24.90;54.90;;;;;;4917276;29;20032;-80
2021/09/02 11:41:34;;;;;;;10.82;7.82;;;25.20;54.30;;;;;;4932011;29;20032;-80
2021/09/02 11:44:01;;;;;;;14.57;8.75;;;25.20;53.20;;;;;;4915669;29;20436;-79
2021/09/02 11:46:28;;;;;;;12.73;8.38;;;25.30;52.70;;;;;;4917034;29;20055;-81
2021/09/02 11:48:55;;;;;;;13.90;8.68;;;25.10;53.30;;;;;;4917171;29;20032;-79
2021/09/02 11:51:25;;;;;;;12.65;9.52;;;25.10;54.00;;;;;;4931474;29;20028;-80
2021/09/02 11:54:09;;;;;;;12.77;8.73;;;25.10;53.80;;;;;;4931698;29;20155;-79
2021/09/02 11:56:36;;;;;;;13.98;8.65;;;25.20;54.10;;;;;;4917101;29;20020;-80
2021/09/02 11:59:04;;;;;;;11.68;8.07;;;24.90;54.80;;;;;;4899592;29;20067;-80
2021/09/02 12:01:29;;;;;;;12.90;8.27;;;24.70;55.90;;;;;;4931937;29;20028;-80
2021/09/02 12:03:55;;;;;;;15.20;10.55;;;24.80;55.50;;;;;;4931539;29;20377;-79
2021/09/02 12:06:29;;;;;;;15.45;9.68;;;24.60;54.90;;;;;;4917787;29;20032;-80
2021/09/02 12:09:01;;;;;;;13.93;8.93;;;24.30;55.40;;;;;;4931662;29;20020;-80
2021/09/02 12:11:28;;;;;;;16.23;8.73;;;24.40;56.30;;;;;;4917250;29;20059;-80
2021/09/02 12:13:56;;;;;;;14.95;9.15;;;24.50;56.00;;;;;;4931902;29;20044;-80
2021/09/02 12:16:30;;;;;;;11.60;8.80;;;24.30;56.50;;;;;;4932095;29;20024;-79
2021/09/02 12:19:00;;;;;;;16.20;10.88;;;24.40;57.60;;;;;;4917216;29;20033;-78
2021/09/02 12:21:30;;;;;;;11.80;9.38;;;24.70;56.50;;;;;;4900902;29;20028;-80
2021/09/02 12:23:59;;;;;;;11.45;8.82;;;24.60;57.10;;;;;;4917353;29;20064;-79
2021/09/02 12:26:44;;;;;;;12.45;8.95;;;24.90;56.80;;;;;;4917016;29;20459;-78
2021/09/02 12:29:12;;;;;;;14.07;9.60;;;25.10;55.80;;;;;;4900703;29;20043;-79
2021/09/02 12:31:38;;;;;;;16.20;10.07;;;25.00;55.80;;;;;;4916559;29;20020;-79
2021/09/02 12:34:24;;;;;;;15.98;10.50;;;25.00;56.40;;;;;;4900449;29;20464;-80